createdAt,value
2023-03-21T00:00:40.944Z,98785.63
2023-03-21T00:03:20.688Z,98785.63
2023-03-21T00:05:51.800Z,98784.63
2023-03-21T00:08:18.794Z,98783.44
2023-03-21T00:10:46.027Z,98780.72
2023-03-21T00:13:13.487Z,98778.16
2023-03-21T00:16:03.994Z,98767.59
2023-03-21T00:18:32.905Z,98762.06
2023-03-21T00:21:35.315Z,98765.78
2023-03-21T00:23:51.065Z,98759.75
2023-03-21T00:26:18.332Z,98754.00
2023-03-21T00:28:45.082Z,98741.50
2023-03-21T00:31:12.156Z,98723.69
2023-03-21T00:33:39.549Z,98741.03
2023-03-21T00:36:08.278Z,98740.16
2023-03-21T00:38:36.193Z,98736.00
2023-03-21T00:41:14.934Z,98732.19
2023-03-21T00:43:46.349Z,98732.44
2023-03-21T00:46:13.413Z,98733.81
2023-03-21T00:48:40.519Z,98731.97
2023-03-21T00:51:26.010Z,98728.16
2023-03-21T00:53:54.567Z,98721.91
2023-03-21T00:56:21.643Z,98715.53
2023-03-21T00:58:48.540Z,98710.25
2023-03-21T01:01:15.668Z,98712.19
2023-03-21T01:03:50.931Z,98714.91
2023-03-21T01:06:19.519Z,98714.16
2023-03-21T01:08:52.791Z,98712.19
2023-03-21T01:11:25.330Z,98713.31
2023-03-21T01:13:57.834Z,98714.28
2023-03-21T01:16:29.089Z,98711.13
2023-03-21T01:18:56.341Z,98713.56
2023-03-21T01:21:23.450Z,98716.28
2023-03-21T01:23:50.304Z,98708.56
2023-03-21T01:26:17.411Z,98706.44
2023-03-21T01:28:44.538Z,98706.72
2023-03-21T01:31:16.128Z,98714.09
2023-03-21T01:33:43.265Z,98704.16
2023-03-21T01:36:16.029Z,98707.97
2023-03-21T01:38:43.339Z,98710.78
2023-03-21T01:41:20.098Z,98712.03
2023-03-21T01:43:47.457Z,98714.75
2023-03-21T01:46:51.472Z,98710.31
2023-03-21T01:49:27.931Z,98705.88
2023-03-21T01:52:06.555Z,98702.22
2023-03-21T01:54:39.126Z,98702.47
2023-03-21T01:57:17.683Z,98703.47
2023-03-21T01:59:46.703Z,98708.00
2023-03-21T02:02:37.619Z,98705.16
2023-03-21T02:05:04.646Z,98708.13
2023-03-21T02:07:35.723Z,98707.38
2023-03-21T02:10:04.927Z,98708.66
2023-03-21T02:12:32.009Z,98699.81
2023-03-21T02:14:58.800Z,98703.63
2023-03-21T02:17:44.771Z,98709.75
2023-03-21T02:20:25.386Z,98700.41
2023-03-21T02:23:36.896Z,98699.94
2023-03-21T02:27:04.088Z,98696.63
2023-03-21T02:29:37.640Z,98693.66
2023-03-21T02:32:18.089Z,98697.38
2023-03-21T02:35:08.006Z,98696.78
2023-03-21T02:37:44.650Z,98701.16
2023-03-21T02:40:40.035Z,98696.41
2023-03-21T02:43:23.638Z,98705.38
2023-03-21T02:45:52.620Z,98707.22
2023-03-21T02:48:44.523Z,98707.81
2023-03-21T02:51:17.475Z,98702.66
2023-03-21T02:53:50.506Z,98713.69
2023-03-21T02:56:20.089Z,98703.97
2023-03-21T02:58:46.870Z,98707.56
2023-03-21T03:01:13.966Z,98710.13
2023-03-21T03:03:40.756Z,98708.53
2023-03-21T03:06:13.590Z,98703.84
2023-03-21T03:09:01.764Z,98698.84
2023-03-21T03:11:32.251Z,98693.34
2023-03-21T03:14:49.874Z,98694.56
2023-03-21T03:17:59.574Z,98699.69
2023-03-21T03:20:50.834Z,98703.50
2023-03-21T03:23:19.881Z,98701.56
2023-03-21T03:25:58.278Z,98701.94
2023-03-21T03:28:27.455Z,98699.81
2023-03-21T03:31:07.384Z,98704.63
2023-03-21T03:33:37.136Z,98701.69
2023-03-21T03:36:06.574Z,98700.06
2023-03-21T03:38:33.951Z,98702.16
2023-03-21T03:41:09.118Z,98697.63
2023-03-21T03:43:44.768Z,98690.53
2023-03-21T03:46:13.150Z,98680.81
2023-03-21T03:48:48.180Z,98685.50
2023-03-21T03:51:30.179Z,98680.81
2023-03-21T03:54:05.470Z,98684.53
2023-03-21T03:56:33.470Z,98678.25
2023-03-21T03:59:02.186Z,98689.16
2023-03-21T04:01:29.190Z,98684.66
2023-03-21T04:04:10.384Z,98684.78
2023-03-21T04:06:39.395Z,98691.03
2023-03-21T04:09:19.267Z,98689.28
2023-03-21T04:11:47.994Z,98685.63
2023-03-21T04:14:15.350Z,98684.78
2023-03-21T04:16:42.202Z,98687.84
2023-03-21T04:19:09.429Z,98699.59
2023-03-21T04:21:36.642Z,98690.53
2023-03-21T04:24:03.970Z,98689.09
2023-03-21T04:26:33.420Z,98693.59
2023-03-21T04:29:03.506Z,98691.63
2023-03-21T04:31:34.393Z,98686.50
2023-03-21T04:34:02.471Z,98679.25
2023-03-21T04:36:39.016Z,98682.94
2023-03-21T04:39:12.300Z,98690.06
2023-03-21T04:41:43.562Z,98693.59
2023-03-21T04:44:11.784Z,98688.94
2023-03-21T04:46:38.729Z,98683.19
2023-03-21T04:49:07.075Z,98679.03
2023-03-21T04:51:34.666Z,98682.56
2023-03-21T04:54:01.755Z,98674.47
2023-03-21T04:56:36.426Z,98678.91
2023-03-21T04:59:07.439Z,98674.00
2023-03-21T05:01:34.202Z,98682.09
2023-03-21T05:04:02.252Z,98675.00
2023-03-21T05:06:29.530Z,98686.50
2023-03-21T05:09:00.207Z,98687.47
2023-03-21T05:11:33.015Z,98684.66
2023-03-21T05:14:00.201Z,98682.69
2023-03-21T05:16:30.525Z,98681.13
2023-03-21T05:18:59.198Z,98678.53
2023-03-21T05:21:29.471Z,98676.81
2023-03-21T05:23:58.381Z,98680.50
2023-03-21T05:26:25.379Z,98681.47
2023-03-21T05:28:52.576Z,98682.59
2023-03-21T05:31:19.444Z,98685.78
2023-03-21T05:33:46.682Z,98672.53
2023-03-21T05:36:13.742Z,98687.25
2023-03-21T05:38:45.487Z,98680.16
2023-03-21T05:41:17.621Z,98688.97
2023-03-21T05:43:45.962Z,98694.59
2023-03-21T05:46:12.880Z,98691.53
2023-03-21T05:48:40.013Z,98691.66
2023-03-21T05:51:06.836Z,98688.13
2023-03-21T05:53:33.893Z,98685.88
2023-03-21T05:56:00.810Z,98692.75
2023-03-21T05:58:28.021Z,98687.84
2023-03-21T06:00:54.862Z,98694.72
2023-03-21T06:03:22.184Z,98692.28
2023-03-21T06:05:49.130Z,98694.38
2023-03-21T06:08:16.599Z,98707.13
2023-03-21T06:10:43.374Z,98704.41
2023-03-21T06:13:10.562Z,98715.22
2023-03-21T06:15:37.520Z,98716.91
2023-03-21T06:18:04.820Z,98715.81
2023-03-21T06:20:31.599Z,98721.34
2023-03-21T06:22:58.663Z,98726.00
2023-03-21T06:25:25.652Z,98727.81
2023-03-21T06:27:52.717Z,98727.56
2023-03-21T06:30:19.726Z,98732.97
2023-03-21T06:32:46.809Z,98735.78
2023-03-21T06:35:13.548Z,98733.34
2023-03-21T06:37:40.726Z,98736.78
2023-03-21T06:40:09.517Z,98737.75
2023-03-21T06:42:36.647Z,98736.06
2023-03-21T06:45:03.686Z,98744.88
2023-03-21T06:47:30.788Z,98747.56
2023-03-21T06:49:57.556Z,98741.44
2023-03-21T06:52:24.610Z,98748.44
2023-03-21T06:54:51.475Z,98745.72
2023-03-21T06:57:20.785Z,98744.75
2023-03-21T06:59:47.643Z,98747.94
2023-03-21T07:02:15.146Z,98739.97
2023-03-21T07:04:41.985Z,98748.53
2023-03-21T07:07:09.114Z,98746.09
2023-03-21T07:09:36.005Z,98753.94
2023-03-21T07:12:03.107Z,98756.50
2023-03-21T07:14:32.052Z,98758.47
2023-03-21T07:16:59.158Z,98759.34
2023-03-21T07:19:26.486Z,98750.41
2023-03-21T07:21:54.713Z,98760.34
2023-03-21T07:24:21.458Z,98762.75
2023-03-21T07:26:48.624Z,98760.34
2023-03-21T07:29:17.534Z,98765.47
2023-03-21T07:31:44.630Z,98761.56
2023-03-21T07:34:11.680Z,98762.75
2023-03-21T07:36:38.807Z,98767.06
2023-03-21T07:39:06.390Z,98766.22
2023-03-21T07:41:33.652Z,98766.06
2023-03-21T07:44:00.542Z,98771.47
2023-03-21T07:46:27.689Z,98773.91
2023-03-21T07:48:54.447Z,98764.97
2023-03-21T07:51:21.507Z,98774.03
2023-03-21T07:53:48.807Z,98769.41
2023-03-21T07:56:16.114Z,98778.22
2023-03-21T07:58:42.931Z,98774.53
2023-03-21T08:01:10.013Z,98779.81
2023-03-21T08:03:38.108Z,98781.53
2023-03-21T08:06:05.734Z,98777.88
2023-03-21T08:08:33.417Z,98776.03
2023-03-21T08:11:00.777Z,98778.47
2023-03-21T08:13:27.785Z,98774.06
2023-03-21T08:15:54.934Z,98772.09
2023-03-21T08:18:21.749Z,98777.25
2023-03-21T08:20:55.611Z,98773.56
2023-03-21T08:23:22.475Z,98773.34
2023-03-21T08:25:53.727Z,98781.56
2023-03-21T08:28:20.810Z,98783.00
2023-03-21T08:30:48.308Z,98780.19
2023-03-21T08:33:15.316Z,98781.03
2023-03-21T08:35:42.793Z,98775.41
2023-03-21T08:38:10.113Z,98783.13
2023-03-21T08:40:37.209Z,98782.16
2023-03-21T08:43:04.086Z,98785.72
2023-03-21T08:45:31.192Z,98792.56
2023-03-21T08:47:58.222Z,98790.00
2023-03-21T08:50:26.561Z,98797.13
2023-03-21T08:52:53.601Z,98790.75
2023-03-21T08:55:20.456Z,98789.50
2023-03-21T08:57:47.611Z,98802.66
2023-03-21T09:00:17.262Z,98794.16
2023-03-21T09:02:45.082Z,98799.31
2023-03-21T09:05:12.201Z,98794.66
2023-03-21T09:07:40.368Z,98800.19
2023-03-21T09:10:20.267Z,98805.25
2023-03-21T09:12:52.733Z,98809.78
2023-03-21T09:15:21.951Z,98803.75
2023-03-21T09:17:50.317Z,98810.28
2023-03-21T09:20:20.948Z,98811.84
2023-03-21T09:22:48.854Z,98800.09
2023-03-21T09:25:16.248Z,98807.19
2023-03-21T09:27:45.670Z,98808.78
2023-03-21T09:30:14.060Z,98813.34
2023-03-21T09:32:42.054Z,98809.63
2023-03-21T09:35:11.386Z,98818.22
2023-03-21T09:37:42.326Z,98820.69
2023-03-21T09:40:19.586Z,98818.34
2023-03-21T09:42:56.995Z,98820.81
2023-03-21T09:45:48.045Z,98829.63
2023-03-21T09:48:26.464Z,98829.25
2023-03-21T09:50:53.788Z,98818.59
2023-03-21T09:53:24.583Z,98823.00
2023-03-21T09:55:52.036Z,98823.75
2023-03-21T09:58:59.360Z,98820.44
2023-03-21T10:01:29.860Z,98817.38
2023-03-21T10:03:57.670Z,98812.69
2023-03-21T10:06:28.764Z,98809.25
2023-03-21T10:09:02.475Z,98818.34
2023-03-21T10:11:30.980Z,98814.25
2023-03-21T10:14:01.287Z,98825.22
2023-03-21T10:16:30.685Z,98815.50
2023-03-21T10:18:59.744Z,98819.66
2023-03-21T10:21:56.385Z,98815.28
2023-03-21T10:24:17.445Z,98822.25
2023-03-21T10:26:44.651Z,98822.13
2023-03-21T10:29:13.264Z,98819.28
2023-03-21T10:31:40.182Z,98821.75
2023-03-21T10:34:18.735Z,98819.19
2023-03-21T10:36:45.878Z,98811.06
2023-03-21T10:39:27.467Z,98817.31
2023-03-21T10:41:54.441Z,98813.03
2023-03-21T10:44:22.050Z,98813.53
2023-03-21T10:46:56.572Z,98811.78
2023-03-21T10:49:25.468Z,98809.97
2023-03-21T10:51:54.341Z,98812.56
2023-03-21T10:54:22.428Z,98814.84
2023-03-21T10:56:55.292Z,98811.19
2023-03-21T10:59:22.913Z,98810.22
2023-03-21T11:01:53.106Z,98819.16
2023-03-21T11:04:29.821Z,98818.56
2023-03-21T11:07:02.964Z,98820.38
2023-03-21T11:09:50.077Z,98818.44
2023-03-21T11:12:29.536Z,98818.03
2023-03-21T11:14:57.418Z,98824.31
2023-03-21T11:17:28.002Z,98814.22
2023-03-21T11:20:00.204Z,98812.38
2023-03-21T11:22:31.380Z,98813.38
2023-03-21T11:25:01.962Z,98811.41
2023-03-21T11:27:30.126Z,98814.09
2023-03-21T11:29:58.298Z,98805.63
2023-03-21T11:32:26.629Z,98806.47
2023-03-21T11:35:19.753Z,98810.75
2023-03-21T11:37:51.096Z,98806.09
2023-03-21T11:40:21.379Z,98811.50
2023-03-21T11:42:54.973Z,98815.06
2023-03-21T11:45:22.993Z,98807.78
2023-03-21T11:47:50.705Z,98802.97
2023-03-21T11:50:21.807Z,98801.03
2023-03-21T11:52:51.460Z,98802.22
2023-03-21T11:55:41.885Z,98797.78
2023-03-21T11:58:27.324Z,98796.69
2023-03-21T12:01:14.831Z,98795.56
2023-03-21T12:04:18.404Z,98802.81
2023-03-21T12:06:47.740Z,98803.53
2023-03-21T12:09:21.974Z,98802.09
2023-03-21T12:11:58.574Z,98788.59
2023-03-21T12:14:39.995Z,98789.31
2023-03-21T12:17:10.418Z,98788.34
2023-03-21T12:20:12.163Z,98776.50
2023-03-21T12:22:42.435Z,98783.91
2023-03-21T12:25:16.493Z,98787.31
2023-03-21T12:28:32.375Z,98777.53
2023-03-21T12:31:14.456Z,98778.88
2023-03-21T12:34:35.819Z,98768.69
2023-03-21T12:37:27.243Z,98771.53
2023-03-21T12:39:55.958Z,98767.94
2023-03-21T12:42:35.202Z,98763.41
2023-03-21T12:45:20.817Z,98768.69
2023-03-21T12:47:50.962Z,98766.72
2023-03-21T12:50:22.813Z,98759.81
2023-03-21T12:52:52.525Z,98762.41
2023-03-21T12:55:24.692Z,98756.16
2023-03-21T12:58:18.349Z,98749.91
2023-03-21T13:00:46.773Z,98750.63
2023-03-21T13:03:30.657Z,98747.78
2023-03-21T13:06:06.648Z,98753.06
2023-03-21T13:08:41.971Z,98744.06
2023-03-21T13:11:11.890Z,98751.34
2023-03-21T13:14:10.346Z,98746.53
2023-03-21T13:16:41.446Z,98748.25
2023-03-21T13:19:28.751Z,98747.69
2023-03-21T13:22:14.158Z,98743.88
2023-03-21T13:24:49.140Z,98736.38
2023-03-21T13:27:42.563Z,98743.03
2023-03-21T13:30:15.106Z,98741.06
2023-03-21T13:32:43.114Z,98742.50
2023-03-21T13:35:27.577Z,98733.53
2023-03-21T13:38:18.461Z,98737.53
2023-03-21T13:40:49.691Z,98742.94
2023-03-21T13:43:52.251Z,98725.50
2023-03-21T13:46:24.935Z,98726.91
2023-03-21T13:49:26.656Z,98728.53
2023-03-21T13:51:59.486Z,98728.66
2023-03-21T13:54:38.982Z,98721.13
2023-03-21T13:57:06.082Z,98721.75
2023-03-21T13:59:40.499Z,98721.03
2023-03-21T14:02:13.135Z,98718.19
2023-03-21T14:04:42.883Z,98716.78
2023-03-21T14:07:23.574Z,98718.50
2023-03-21T14:09:51.895Z,98720.22
2023-03-21T14:12:27.081Z,98714.66
2023-03-21T14:15:14.157Z,98718.25
2023-03-21T14:17:59.121Z,98712.44
2023-03-21T14:20:38.419Z,98706.84
2023-03-21T14:23:06.648Z,98716.56
2023-03-21T14:25:40.813Z,98703.75
2023-03-21T14:28:19.913Z,98712.31
2023-03-21T14:30:51.605Z,98710.34
2023-03-21T14:33:51.848Z,98709.47
2023-03-21T14:36:30.280Z,98703.22
2023-03-21T14:39:16.348Z,98705.53
2023-03-21T14:41:52.321Z,98708.53
2023-03-21T14:44:28.947Z,98698.44
2023-03-21T14:47:04.664Z,98701.13
2023-03-21T14:49:33.250Z,98699.84
2023-03-21T14:52:04.014Z,98693.47
2023-03-21T14:54:31.864Z,98695.91
2023-03-21T14:57:03.545Z,98690.34
2023-03-21T14:59:33.359Z,98694.63
2023-03-21T15:02:03.725Z,98695.31
2023-03-21T15:04:31.876Z,98692.22
2023-03-21T15:07:05.092Z,98694.91
2023-03-21T15:09:34.476Z,98689.38
2023-03-21T15:12:01.820Z,98684.38
2023-03-21T15:14:33.602Z,98687.97
2023-03-21T15:17:02.192Z,98682.25
2023-03-21T15:19:31.434Z,98686.56
2023-03-21T15:22:06.441Z,98687.25
2023-03-21T15:24:36.693Z,98679.28
2023-03-21T15:27:05.732Z,98667.47
2023-03-21T15:29:33.629Z,98670.03
2023-03-21T15:32:04.270Z,98668.16
2023-03-21T15:34:31.706Z,98669.75
2023-03-21T15:37:01.884Z,98663.47
2023-03-21T15:39:29.184Z,98658.03
2023-03-21T15:42:20.192Z,98666.75
2023-03-21T15:44:51.442Z,98655.63
2023-03-21T15:47:36.038Z,98651.09
2023-03-21T15:50:08.091Z,98648.22
2023-03-21T15:52:35.990Z,98649.94
2023-03-21T15:55:03.024Z,98645.38
2023-03-21T15:57:32.887Z,98650.78
2023-03-21T16:00:06.528Z,98641.81
2023-03-21T16:02:33.808Z,98648.66
2023-03-21T16:05:03.774Z,98651.53
2023-03-21T16:07:33.669Z,98652.66
2023-03-21T16:10:02.195Z,98649.66
2023-03-21T16:12:29.401Z,98659.66
2023-03-21T16:14:56.539Z,98659.50
2023-03-21T16:17:28.210Z,98659.50
2023-03-21T16:19:55.303Z,98662.91
2023-03-21T16:22:22.503Z,98667.47
2023-03-21T16:24:49.410Z,98664.03
2023-03-21T16:27:17.585Z,98668.34
2023-03-21T16:29:44.375Z,98671.19
2023-03-21T16:32:15.949Z,98670.03
2023-03-21T16:34:42.893Z,98668.47
2023-03-21T16:37:11.902Z,98665.91
2023-03-21T16:39:38.925Z,98662.34
2023-03-21T16:42:06.293Z,98665.91
2023-03-21T16:44:33.898Z,98665.19
2023-03-21T16:47:02.385Z,98673.19
2023-03-21T16:49:29.403Z,98674.16
2023-03-21T16:51:57.382Z,98670.31
2023-03-21T16:54:24.314Z,98678.31
2023-03-21T16:56:55.100Z,98679.28
2023-03-21T16:59:21.956Z,98684.97
2023-03-21T17:01:49.213Z,98683.69
2023-03-21T17:04:16.942Z,98688.94
2023-03-21T17:06:53.391Z,98684.94
2023-03-21T17:09:24.272Z,98689.59
2023-03-21T17:11:51.427Z,98687.19
2023-03-21T17:14:18.813Z,98688.44
2023-03-21T17:16:46.165Z,98693.03
2023-03-21T17:19:17.047Z,98688.72
2023-03-21T17:21:44.252Z,98691.72
2023-03-21T17:24:11.094Z,98689.03
2023-03-21T17:26:38.347Z,98697.28
2023-03-21T17:29:05.275Z,98694.13
2023-03-21T17:31:36.869Z,98697.81
2023-03-21T17:34:04.546Z,98694.53
2023-03-21T17:36:36.574Z,98699.81
2023-03-21T17:39:05.877Z,98699.94
2023-03-21T17:41:33.143Z,98700.06
2023-03-21T17:43:59.925Z,98697.75
2023-03-21T17:46:27.417Z,98699.50
2023-03-21T17:48:54.987Z,98696.03
2023-03-21T17:51:26.027Z,98702.72
2023-03-21T17:53:52.875Z,98693.75
2023-03-21T17:56:30.898Z,98697.19
2023-03-21T17:59:01.839Z,98703.00
2023-03-21T18:01:30.796Z,98702.00
2023-03-21T18:03:58.141Z,98697.72
2023-03-21T18:06:26.034Z,98700.56
2023-03-21T18:08:53.297Z,98696.16
2023-03-21T18:11:21.200Z,98707.38
2023-03-21T18:13:48.690Z,98694.91
2023-03-21T18:16:17.828Z,98703.19
2023-03-21T18:18:46.616Z,98706.28
2023-03-21T18:21:14.676Z,98705.72
2023-03-21T18:23:41.550Z,98700.16
2023-03-21T18:26:09.762Z,98704.13
2023-03-21T18:28:39.619Z,98701.53
2023-03-21T18:31:13.401Z,98705.97
2023-03-21T18:33:45.222Z,98692.72
2023-03-21T18:36:24.530Z,98704.63
2023-03-21T18:38:52.183Z,98699.66
2023-03-21T18:41:19.816Z,98709.59
2023-03-21T18:44:09.674Z,98696.81
2023-03-21T18:46:34.121Z,98707.63
2023-03-21T18:49:19.882Z,98713.03
2023-03-21T18:51:48.066Z,98708.03
2023-03-21T18:54:14.930Z,98710.13
2023-03-21T18:59:34.574Z,98719.22
2023-03-21T19:02:02.606Z,98713.09
2023-03-21T19:04:30.507Z,98719.34
2023-03-21T19:06:58.552Z,98731.31
2023-03-21T19:09:30.920Z,98727.00
2023-03-21T19:11:59.014Z,98721.84
2023-03-21T19:14:26.008Z,98728.16
2023-03-21T19:17:56.458Z,98731.09
2023-03-21T19:19:41.876Z,98729.25
2023-03-21T19:22:08.977Z,98731.22
2023-03-21T19:24:35.781Z,98727.81
2023-03-21T19:27:02.921Z,98730.63
2023-03-21T19:29:29.738Z,98713.66
2023-03-21T19:31:57.221Z,98709.16
2023-03-21T19:34:24.100Z,98703.63
2023-03-21T19:36:52.484Z,98704.97
2023-03-21T19:39:22.584Z,98705.97
2023-03-21T19:41:55.384Z,98703.66
2023-03-21T19:44:30.911Z,98702.94
2023-03-21T19:46:58.027Z,98710.75
2023-03-21T19:49:34.709Z,98708.22
2023-03-21T19:52:13.419Z,98711.63
2023-03-21T19:54:40.348Z,98706.63
2023-03-21T19:57:09.705Z,98703.78
2023-03-21T19:59:36.562Z,98704.16
2023-03-21T20:02:25.017Z,98711.31
2023-03-21T20:04:51.079Z,98707.13
2023-03-21T20:07:18.247Z,98711.81
2023-03-21T20:09:51.908Z,98709.09
2023-03-21T20:12:19.705Z,98699.56
2023-03-21T20:14:49.065Z,98707.53
2023-03-21T20:17:16.898Z,98704.97
2023-03-21T20:19:43.872Z,98711.59
2023-03-21T20:22:21.957Z,98710.63
2023-03-21T20:24:54.873Z,98709.91
2023-03-21T20:27:25.166Z,98702.78
2023-03-21T20:30:09.874Z,98696.28
2023-03-21T20:32:38.774Z,98687.28
2023-03-21T20:35:19.229Z,98695.66
2023-03-21T20:37:52.862Z,98694.06
2023-03-21T20:40:20.443Z,98695.31
2023-03-21T20:42:48.923Z,98695.94
2023-03-21T20:45:16.571Z,98694.19
2023-03-21T20:47:43.909Z,98697.28
2023-03-21T20:50:13.748Z,98690.19
2023-03-21T20:53:06.324Z,98684.03
2023-03-21T20:55:29.331Z,98679.38
2023-03-21T20:57:56.402Z,98678.75
2023-03-21T21:00:23.288Z,98670.94
2023-03-21T21:02:50.553Z,98670.19
2023-03-21T21:05:29.208Z,98661.34
2023-03-21T21:07:57.225Z,98674.13
2023-03-21T21:10:24.021Z,98670.31
2023-03-21T21:12:51.256Z,98670.31
2023-03-21T21:15:18.166Z,98665.56
2023-03-21T21:20:33.725Z,98662.03
2023-03-21T21:23:01.191Z,98663.13
2023-03-21T21:25:29.378Z,98661.38
2023-03-21T21:27:56.496Z,98673.06
2023-03-21T21:30:23.482Z,98675.38
2023-03-21T21:32:50.611Z,98679.41
2023-03-21T21:35:19.618Z,98682.63
2023-03-21T21:37:46.753Z,98691.56
2023-03-21T21:40:20.460Z,98680.91
2023-03-21T21:42:47.728Z,98677.22
2023-03-21T21:45:14.658Z,98676.63
2023-03-21T21:47:43.440Z,98676.88
2023-03-21T21:50:10.541Z,98676.88
2023-03-21T21:52:37.616Z,98682.50
2023-03-21T21:55:06.454Z,98678.97
2023-03-21T21:57:34.430Z,98683.13
2023-03-21T22:00:06.955Z,98673.19
2023-03-21T22:02:34.171Z,98663.63
2023-03-21T22:05:01.140Z,98667.44
2023-03-21T22:07:28.245Z,98667.19
2023-03-21T22:09:54.994Z,98663.88
2023-03-21T22:12:22.103Z,98664.63
2023-03-21T22:14:48.868Z,98665.72
2023-03-21T22:17:16.388Z,98662.50
2023-03-21T22:19:46.266Z,98661.66
2023-03-21T22:22:19.886Z,98662.50
2023-03-21T22:24:46.664Z,98651.00
2023-03-21T22:27:13.982Z,98646.81
2023-03-21T22:29:40.712Z,98644.41
2023-03-21T22:32:08.083Z,98641.81
2023-03-21T22:34:34.991Z,98639.25
2023-03-21T22:37:02.658Z,98642.78
2023-03-21T22:39:29.557Z,98656.53
2023-03-21T22:42:00.898Z,98666.84
2023-03-21T22:44:34.441Z,98661.69
2023-03-21T22:47:06.223Z,98662.81
2023-03-21T22:49:33.030Z,98662.81
2023-03-21T22:52:00.777Z,98664.38
2023-03-21T22:54:27.578Z,98667.09
2023-03-21T22:56:54.674Z,98665.63
2023-03-21T22:59:21.523Z,98655.22
2023-03-21T23:01:49.240Z,98639.41
2023-03-21T23:04:16.356Z,98640.38
2023-03-21T23:06:43.634Z,98641.25
2023-03-21T23:09:10.591Z,98650.06
2023-03-21T23:11:37.725Z,98651.16
2023-03-21T23:14:07.981Z,98650.19
2023-03-21T23:16:38.343Z,98656.44
2023-03-21T23:19:05.775Z,98665.16
2023-03-21T23:21:34.587Z,98666.00
2023-03-21T23:24:01.367Z,98658.16
2023-03-21T23:26:28.629Z,98644.06
2023-03-21T23:28:55.453Z,98636.47
2023-03-21T23:31:24.140Z,98635.75
2023-03-21T23:33:51.191Z,98645.41
2023-03-21T23:36:18.782Z,98667.88
2023-03-21T23:38:45.814Z,98669.69
2023-03-21T23:41:17.573Z,98660.75
2023-03-21T23:43:44.508Z,98655.59
2023-03-21T23:46:12.920Z,98657.56
2023-03-21T23:48:41.268Z,98667.50
2023-03-21T23:51:11.945Z,98663.09
2023-03-21T23:53:39.342Z,98657.81
2023-03-21T23:56:21.145Z,98661.50
2023-03-21T23:58:48.207Z,98652.66
